SHMÚ vydal meteorologické výstrahy na Vietor Zobraziť výstrahy

METAR

Letisková meteorologická správa METAR

Meteorologické informácie z ďalších profesionálnych meteorologických staníc SHMÚ zobrazené v tvare zodpovedajúcom pravidlám kódovania správ METAR sú uvedené v položke „METSYN

Informácie o správe METAR

25.03.2017 - 13:00 UTC

METAR LZIB 251300Z VRB04KT 9999 FEW046 14/01 Q1024 NOSIG=
METAR LZKZ 251300Z 02011KT CAVOK 13/M04 Q1022 NOSIG=
METAR LZPP 251300Z 32007KT CAVOK 14/M03 Q1024=
METAR LZSL 251300Z 01003KT 310V070 CAVOK 14/M03 Q1022=
METAR LZTT 251300Z 25013KT 9999 FEW060 10/M04 Q1021 NOSIG=
METAR LZZI 251300Z 34007KT 310V010 CAVOK 12/M02 Q1024=

25.03.2017 - 12:30 UTC

METAR LZIB 251230Z 19004KT 120V220 9999 FEW045 14/02 Q1025 NOSIG=
METAR LZKZ 251230Z 04011KT CAVOK 13/M04 Q1022 NOSIG=
METAR LZPP 251230Z 33005KT 250V010 CAVOK 14/M02 Q1024=
METAR LZSL 251230Z 14004KT 110V200 CAVOK 14/M03 Q1023=
METAR LZTT 251230Z 25013KT 9999 FEW060 10/M05 Q1022 NOSIG=
METAR LZZI 251230Z 35007KT 310V020 9999 FEW062 12/M03 Q1024=

25.03.2017 - 13:00 UTC

METAR LZMC 251300Z 33006KT CAVOK 14/M04 Q1025=
METAR LZPW 251300Z 34008KT CAVOK 13/M03 Q1022=

skok na menu ↑


skok na začiatok stránky ↑